Time;durP1;ratioP1;P1;durP2;ratioP2;P2;SDS_P1;SDS_P2;PMS_P1;PMS_P2;Temp;Humidity;BMP_temperature;BMP_pressure;BME280_temperature;BME280_humidity;BME280_pressure;Samples;Min_cycle;Max_cycle;Signal;HPM_P1;HPM_P2
2021/07/26 00:01:54;;;;;;;14.00;12.90;;;18.50;99.90;;;;;;5046534;28;20456;-69
2021/07/26 00:04:23;;;;;;;16.60;14.90;;;18.40;99.90;;;;;;5039584;28;20570;-70
2021/07/26 00:06:51;;;;;;;15.50;14.30;;;18.40;99.90;;;;;;5046018;28;20919;-68
2021/07/26 00:09:18;;;;;;;26.23;14.53;;;18.40;99.90;;;;;;5046503;28;20467;-68
2021/07/26 00:11:45;;;;;;;13.90;13.10;;;18.30;99.90;;;;;;5041738;28;20584;-68
2021/07/26 00:14:13;;;;;;;15.40;14.20;;;18.30;99.90;;;;;;5040998;28;20963;-68
2021/07/26 00:16:40;;;;;;;15.10;13.87;;;18.30;99.90;;;;;;5045424;28;20463;-68
2021/07/26 00:19:06;;;;;;;14.90;13.60;;;18.30;99.90;;;;;;5041218;28;20505;-68
2021/07/26 00:21:35;;;;;;;16.50;15.00;;;18.20;99.90;;;;;;5046277;28;20473;-71
2021/07/26 00:24:01;;;;;;;15.27;14.30;;;18.20;99.90;;;;;;5046278;28;20472;-69
2021/07/26 00:26:29;;;;;;;14.10;13.10;;;18.20;99.90;;;;;;5045251;28;20482;-71
2021/07/26 00:28:57;;;;;;;14.03;13.03;;;18.10;99.90;;;;;;5047534;28;21182;-69
2021/07/26 00:31:26;;;;;;;16.23;14.70;;;18.10;99.90;;;;;;5039949;28;20567;-68
2021/07/26 00:34:18;;;;;;;14.83;13.73;;;18.10;99.90;;;;;;5044380;28;20462;-69
2021/07/26 00:36:47;;;;;;;15.67;14.23;;;18.10;99.90;;;;;;5040000;28;20807;-68
2021/07/26 00:39:16;;;;;;;15.37;14.33;;;18.10;99.90;;;;;;5046318;28;20491;-70
2021/07/26 00:41:45;;;;;;;15.00;14.00;;;18.10;99.90;;;;;;5044713;28;21081;-71
2021/07/26 00:44:13;;;;;;;15.50;14.00;;;18.10;99.90;;;;;;5062017;28;20849;-69
2021/07/26 00:46:41;;;;;;;20.57;14.33;;;18.10;99.90;;;;;;5059843;28;20471;-69
2021/07/26 00:49:11;;;;;;;15.60;14.07;;;18.10;99.90;;;;;;5063024;28;20976;-69
2021/07/26 00:51:40;;;;;;;16.07;14.67;;;18.10;99.90;;;;;;5061519;28;20883;-69
2021/07/26 00:54:08;;;;;;;16.40;14.93;;;18.10;99.90;;;;;;5062394;28;20460;-68
2021/07/26 00:56:35;;;;;;;15.43;14.23;;;18.00;99.90;;;;;;5061408;28;20463;-69
2021/07/26 00:59:02;;;;;;;15.40;14.37;;;18.00;99.90;;;;;;5064324;28;20824;-69
2021/07/26 01:01:30;;;;;;;15.47;14.23;;;18.00;99.90;;;;;;5067164;28;20821;-69
2021/07/26 01:03:58;;;;;;;14.70;13.60;;;18.00;99.90;;;;;;5061490;28;20985;-69
2021/07/26 01:06:25;;;;;;;15.03;13.93;;;18.00;99.90;;;;;;5064579;28;20830;-70
2021/07/26 01:08:52;;;;;;;16.97;14.40;;;17.90;99.90;;;;;;5059175;28;20459;-68
2021/07/26 01:11:20;;;;;;;16.93;15.60;;;17.90;99.90;;;;;;5060885;28;20468;-70
2021/07/26 01:13:48;;;;;;;16.00;14.90;;;17.90;99.90;;;;;;5065035;28;20488;-69
2021/07/26 01:16:15;;;;;;;16.10;14.70;;;17.90;99.90;;;;;;5061987;28;20447;-70
2021/07/26 01:18:42;;;;;;;15.90;14.40;;;17.80;99.90;;;;;;5058632;28;20510;-69
2021/07/26 01:21:13;;;;;;;14.50;13.40;;;17.80;99.90;;;;;;5056516;28;21012;-70
2021/07/26 01:23:42;;;;;;;15.43;14.23;;;17.80;99.90;;;;;;5055527;28;20818;-71
2021/07/26 01:26:11;;;;;;;14.80;13.83;;;17.80;99.90;;;;;;5058603;28;20475;-69
2021/07/26 01:28:40;;;;;;;15.80;14.50;;;17.90;99.90;;;;;;5070267;28;20457;-71
2021/07/26 01:31:10;;;;;;;14.50;13.50;;;17.90;99.90;;;;;;5064434;28;20454;-68
2021/07/26 01:33:38;;;;;;;15.33;14.30;;;17.80;99.90;;;;;;5062282;28;20469;-69
2021/07/26 01:36:05;;;;;;;15.47;14.33;;;17.80;99.90;;;;;;5059488;28;20471;-69
2021/07/26 01:38:34;;;;;;;14.87;13.97;;;17.80;99.90;;;;;;5056512;28;20542;-68
2021/07/26 01:41:03;;;;;;;16.63;14.93;;;17.80;99.90;;;;;;5064020;28;20493;-69
2021/07/26 01:43:34;;;;;;;15.20;14.13;;;17.80;99.90;;;;;;5065712;28;20588;-69
2021/07/26 01:46:15;;;;;;;15.53;14.53;;;17.80;99.90;;;;;;5060793;28;20466;-68
2021/07/26 01:48:49;;;;;;;16.80;15.43;;;17.70;99.90;;;;;;5066971;28;20462;-68
2021/07/26 01:51:20;;;;;;;15.27;13.97;;;17.70;99.90;;;;;;5060681;28;20505;-68
2021/07/26 01:53:50;;;;;;;15.50;14.10;;;17.70;99.90;;;;;;5060181;28;20470;-70
2021/07/26 01:56:17;;;;;;;14.90;14.00;;;17.60;99.90;;;;;;5061602;28;20467;-69
2021/07/26 01:58:44;;;;;;;15.37;13.97;;;17.60;99.90;;;;;;5066247;28;20470;-71
2021/07/26 02:01:14;;;;;;;15.13;14.20;;;17.60;99.90;;;;;;5064569;28;20563;-69
2021/07/26 02:03:41;;;;;;;14.60;13.50;;;17.60;99.90;;;;;;5061132;28;20850;-68
2021/07/26 02:06:09;;;;;;;16.27;14.77;;;17.60;99.90;;;;;;5059452;28;21014;-68
2021/07/26 02:08:36;;;;;;;14.80;13.90;;;17.50;99.90;;;;;;5064373;28;20466;-68
2021/07/26 02:11:04;;;;;;;15.77;14.20;;;17.60;99.90;;;;;;5055012;28;20871;-68
2021/07/26 02:13:35;;;;;;;15.50;14.33;;;17.60;99.90;;;;;;5062906;28;20467;-71
2021/07/26 02:16:02;;;;;;;15.17;14.07;;;17.60;99.90;;;;;;5056708;28;20460;-70
2021/07/26 02:18:29;;;;;;;15.73;14.27;;;17.60;99.90;;;;;;5058825;28;20965;-68
2021/07/26 02:20:56;;;;;;;14.63;13.83;;;17.60;99.90;;;;;;5061214;28;20494;-68
2021/07/26 02:23:23;;;;;;;15.87;14.67;;;17.70;99.90;;;;;;5063901;28;20471;-68
2021/07/26 02:25:51;;;;;;;14.50;13.60;;;17.60;99.90;;;;;;5062132;28;20587;-68
2021/07/26 02:28:20;;;;;;;15.30;14.17;;;17.60;99.90;;;;;;5058333;28;20464;-69
2021/07/26 02:30:47;;;;;;;15.30;14.30;;;17.60;99.90;;;;;;5063011;28;20459;-70
2021/07/26 02:33:14;;;;;;;15.83;14.80;;;17.50;99.90;;;;;;5061636;28;20481;-70
2021/07/26 02:35:40;;;;;;;14.90;13.80;;;17.50;99.90;;;;;;5059339;28;20479;-68
2021/07/26 02:38:09;;;;;;;15.37;14.37;;;17.50;99.90;;;;;;5061287;28;20460;-68
2021/07/26 02:40:36;;;;;;;15.37;14.37;;;17.50;99.90;;;;;;5060172;28;20491;-69
2021/07/26 02:43:03;;;;;;;16.70;15.50;;;17.50;99.90;;;;;;5062874;28;20486;-70
2021/07/26 02:45:31;;;;;;;16.10;14.93;;;17.50;99.90;;;;;;5055184;28;20471;-69
2021/07/26 02:47:58;;;;;;;15.90;14.87;;;17.40;99.90;;;;;;5062966;28;20966;-68
2021/07/26 02:50:26;;;;;;;16.40;15.20;;;17.40;99.90;;;;;;5058463;28;20466;-70
2021/07/26 02:52:54;;;;;;;15.03;14.13;;;17.40;99.90;;;;;;5063549;28;20470;-71
2021/07/26 02:55:21;;;;;;;14.80;13.60;;;17.40;99.90;;;;;;5061776;28;20460;-69
2021/07/26 02:57:48;;;;;;;15.60;14.70;;;17.40;99.90;;;;;;5055325;28;20460;-68
2021/07/26 03:00:15;;;;;;;15.33;14.00;;;17.30;99.90;;;;;;5063016;28;20511;-69
2021/07/26 03:02:44;;;;;;;15.27;14.00;;;17.30;99.90;;;;;;5065353;28;21046;-71
2021/07/26 03:05:11;;;;;;;15.63;14.40;;;17.30;99.90;;;;;;5062982;28;20470;-71
2021/07/26 03:07:37;;;;;;;15.70;14.70;;;17.30;99.90;;;;;;5062871;28;20459;-69
2021/07/26 03:10:05;;;;;;;16.17;15.00;;;17.30;99.90;;;;;;5066028;28;20467;-69
2021/07/26 03:12:32;;;;;;;16.00;14.93;;;17.30;99.90;;;;;;5057873;28;20459;-69
2021/07/26 03:15:00;;;;;;;15.53;14.23;;;17.30;99.90;;;;;;5062066;28;20513;-69
2021/07/26 03:17:27;;;;;;;15.53;14.40;;;17.30;99.90;;;;;;5060130;28;20455;-70
2021/07/26 03:19:55;;;;;;;15.60;14.53;;;17.30;99.90;;;;;;5060582;28;20470;-71
2021/07/26 03:22:57;;;;;;;15.83;14.90;;;17.20;99.90;;;;;;5058557;28;20467;-69
2021/07/26 03:25:25;;;;;;;16.30;15.03;;;17.30;99.90;;;;;;5059009;28;20455;-68
2021/07/26 03:27:52;;;;;;;15.90;14.60;;;17.20;99.90;;;;;;5062396;28;20459;-68
2021/07/26 03:30:20;;;;;;;15.60;14.50;;;17.20;99.90;;;;;;5060827;28;20470;-70
2021/07/26 03:32:48;;;;;;;14.73;13.73;;;17.20;99.90;;;;;;5051632;28;20456;-71
2021/07/26 03:35:19;;;;;;;15.20;14.00;;;17.20;99.90;;;;;;5060693;28;20463;-69
2021/07/26 03:37:46;;;;;;;14.70;13.57;;;17.30;99.90;;;;;;5062127;28;20469;-71
2021/07/26 03:40:15;;;;;;;15.13;14.07;;;17.30;99.90;;;;;;5061506;28;20578;-69
2021/07/26 03:42:43;;;;;;;15.57;14.50;;;17.30;99.90;;;;;;5062474;28;20498;-69
2021/07/26 03:45:12;;;;;;;14.73;13.83;;;17.40;99.90;;;;;;5059492;28;20478;-69
2021/07/26 03:47:41;;;;;;;15.57;14.47;;;17.50;99.90;;;;;;5059058;28;20514;-69
2021/07/26 03:50:09;;;;;;;14.50;13.57;;;17.50;99.90;;;;;;5061126;28;20554;-68
2021/07/26 03:52:48;;;;;;;14.27;13.30;;;17.50;99.90;;;;;;5059954;28;20459;-68
2021/07/26 03:55:18;;;;;;;15.33;14.00;;;17.60;99.90;;;;;;5053565;28;20451;-70
2021/07/26 03:57:46;;;;;;;15.10;13.60;;;17.60;99.90;;;;;;5066492;28;20877;-69
2021/07/26 04:00:15;;;;;;;15.33;14.43;;;17.60;99.90;;;;;;5055466;28;20487;-70
2021/07/26 04:02:43;;;;;;;15.03;13.83;;;17.70;99.90;;;;;;5056541;28;20462;-69
2021/07/26 04:05:18;;;;;;;14.80;13.80;;;17.80;99.90;;;;;;5056733;28;20474;-69
2021/07/26 04:07:48;;;;;;;14.60;13.50;;;17.80;99.90;;;;;;5061364;28;20466;-69
2021/07/26 04:10:17;;;;;;;14.53;13.50;;;17.80;99.90;;;;;;5060525;28;20547;-71
2021/07/26 04:12:47;;;;;;;15.23;14.23;;;17.90;99.90;;;;;;5059589;28;20545;-70
2021/07/26 04:15:14;;;;;;;16.13;14.90;;;17.90;99.90;;;;;;5065853;28;20529;-69
2021/07/26 04:17:41;;;;;;;16.13;14.67;;;18.00;99.90;;;;;;5059776;28;20821;-69
2021/07/26 04:20:09;;;;;;;15.90;14.60;;;18.00;99.90;;;;;;5059062;28;20469;-71
2021/07/26 04:22:36;;;;;;;14.97;13.97;;;18.00;99.90;;;;;;5058177;28;20462;-70
2021/07/26 04:25:05;;;;;;;16.27;14.90;;;18.00;99.90;;;;;;5059970;28;20495;-70
2021/07/26 04:27:35;;;;;;;16.03;14.90;;;18.00;99.90;;;;;;5062388;28;20549;-70
2021/07/26 04:30:03;;;;;;;15.77;14.53;;;18.00;99.90;;;;;;5066777;28;20498;-70
2021/07/26 04:32:30;;;;;;;15.73;14.93;;;18.10;99.90;;;;;;5061074;28;20463;-71
2021/07/26 04:34:59;;;;;;;15.87;14.50;;;18.10;99.90;;;;;;5059666;28;20459;-69
2021/07/26 04:37:26;;;;;;;15.43;14.33;;;18.10;99.90;;;;;;5057199;28;20966;-69
2021/07/26 04:39:53;;;;;;;15.90;14.90;;;18.10;99.90;;;;;;5056203;28;20467;-69
2021/07/26 04:42:22;;;;;;;15.50;14.43;;;18.10;99.90;;;;;;5060018;28;20494;-69
2021/07/26 04:44:48;;;;;;;15.03;13.93;;;18.10;99.90;;;;;;5061753;28;20812;-70
2021/07/26 04:47:16;;;;;;;15.87;14.63;;;18.10;99.90;;;;;;5063223;28;20466;-69
2021/07/26 04:49:43;;;;;;;15.10;13.97;;;18.10;99.90;;;;;;5062346;28;20584;-69
2021/07/26 04:52:10;;;;;;;14.83;14.00;;;18.10;99.90;;;;;;5058760;28;20459;-72
2021/07/26 04:54:37;;;;;;;14.90;14.00;;;18.10;99.90;;;;;;5068111;28;20471;-69
2021/07/26 04:57:04;;;;;;;14.83;13.93;;;18.10;99.90;;;;;;5068428;28;20463;-69
2021/07/26 04:59:32;;;;;;;16.67;15.27;;;18.00;99.90;;;;;;5064003;28;20473;-69
2021/07/26 05:02:00;;;;;;;15.60;14.57;;;18.10;99.90;;;;;;5058382;28;20486;-68
2021/07/26 05:04:27;;;;;;;15.63;14.50;;;18.10;99.90;;;;;;5059285;28;20464;-69
2021/07/26 05:07:01;;;;;;;14.73;13.83;;;18.10;99.90;;;;;;5059981;28;20976;-70
2021/07/26 05:09:28;;;;;;;16.47;15.00;;;18.10;99.90;;;;;;5064437;28;20490;-69
2021/07/26 05:11:55;;;;;;;15.60;14.40;;;18.20;99.90;;;;;;5058971;28;20458;-69
2021/07/26 05:14:22;;;;;;;15.97;14.60;;;18.20;99.90;;;;;;5058256;28;20463;-69
2021/07/26 05:16:50;;;;;;;15.73;14.53;;;18.30;99.90;;;;;;5061407;28;20470;-68
2021/07/26 05:19:17;;;;;;;16.57;15.30;;;18.40;99.90;;;;;;5059872;28;20471;-69
2021/07/26 05:21:44;;;;;;;16.73;15.07;;;18.40;99.90;;;;;;5060819;28;20494;-69
2021/07/26 05:24:12;;;;;;;16.37;15.23;;;18.50;99.90;;;;;;5058671;28;20460;-68
2021/07/26 05:26:40;;;;;;;17.20;15.60;;;18.50;99.90;;;;;;5063302;28;20965;-71
2021/07/26 05:29:07;;;;;;;16.20;15.00;;;18.60;99.90;;;;;;5064597;28;20474;-69
2021/07/26 05:31:34;;;;;;;16.47;14.93;;;18.60;99.90;;;;;;5064667;28;20455;-70
2021/07/26 05:34:02;;;;;;;17.87;16.20;;;18.70;99.90;;;;;;5066040;28;20542;-69
2021/07/26 05:36:29;;;;;;;16.80;15.50;;;18.80;99.90;;;;;;5064717;28;20463;-72
2021/07/26 05:38:56;;;;;;;16.87;15.57;;;18.90;99.90;;;;;;5064683;28;20455;-69
2021/07/26 05:41:23;;;;;;;16.53;15.47;;;19.00;99.90;;;;;;5061345;28;20491;-69
2021/07/26 05:43:50;;;;;;;16.50;15.10;;;19.00;99.90;;;;;;5066725;28;20475;-70
2021/07/26 05:46:18;;;;;;;16.87;15.23;;;19.10;99.90;;;;;;5066851;28;20462;-68
2021/07/26 05:48:45;;;;;;;16.70;15.40;;;19.20;99.90;;;;;;5064250;28;20977;-72
2021/07/26 05:51:14;;;;;;;18.03;16.00;;;19.30;99.90;;;;;;5065832;28;21051;-69
2021/07/26 05:53:43;;;;;;;19.50;15.30;;;19.20;99.90;;;;;;5064069;28;20794;-69
2021/07/26 05:56:12;;;;;;;17.40;15.87;;;19.30;99.90;;;;;;5062972;28;20451;-71
2021/07/26 05:58:45;;;;;;;26.73;16.10;;;19.40;99.90;;;;;;5064780;28;20477;-69
2021/07/26 06:01:23;;;;;;;21.40;16.97;;;19.40;99.90;;;;;;5060826;28;20498;-69
2021/07/26 06:03:51;;;;;;;18.53;16.57;;;19.50;99.90;;;;;;5053288;28;20532;-69
2021/07/26 06:06:19;;;;;;;17.03;15.43;;;19.40;99.90;;;;;;5063119;28;20466;-70
2021/07/26 06:08:46;;;;;;;18.60;16.73;;;19.60;99.90;;;;;;5064090;28;20455;-73
2021/07/26 06:11:13;;;;;;;17.60;15.30;;;19.60;99.90;;;;;;5064226;28;20552;-68
2021/07/26 06:13:40;;;;;;;24.03;16.30;;;19.50;99.90;;;;;;5066190;28;20889;-69
2021/07/26 06:16:08;;;;;;;17.33;15.77;;;19.60;99.90;;;;;;5057548;28;21180;-69
2021/07/26 06:18:35;;;;;;;16.67;15.43;;;19.70;99.90;;;;;;5061654;28;20540;-69
2021/07/26 06:21:06;;;;;;;18.53;16.60;;;19.70;99.90;;;;;;5063803;28;20481;-68
2021/07/26 06:23:36;;;;;;;17.03;15.83;;;19.80;99.90;;;;;;5060562;28;20510;-69
2021/07/26 06:26:05;;;;;;;17.07;15.57;;;19.80;99.90;;;;;;5062864;28;20458;-69
2021/07/26 06:28:32;;;;;;;16.30;15.20;;;19.90;99.90;;;;;;5060683;28;20513;-70
2021/07/26 06:30:59;;;;;;;16.93;15.57;;;20.20;99.90;;;;;;5059034;28;20474;-69
2021/07/26 06:33:25;;;;;;;17.53;16.17;;;20.30;99.90;;;;;;5067096;28;20830;-68
2021/07/26 06:35:52;;;;;;;15.50;14.50;;;20.40;99.90;;;;;;5060847;28;20450;-68
2021/07/26 06:38:19;;;;;;;17.03;15.53;;;20.50;99.90;;;;;;5061525;28;20829;-69
2021/07/26 06:40:47;;;;;;;16.33;15.20;;;20.60;99.90;;;;;;5057149;28;20587;-68
2021/07/26 06:43:15;;;;;;;18.03;15.87;;;20.80;99.90;;;;;;5060465;28;20502;-69
2021/07/26 06:45:42;;;;;;;15.87;14.97;;;20.90;99.90;;;;;;5061663;28;20447;-69
2021/07/26 06:48:09;;;;;;;17.67;15.67;;;20.90;99.90;;;;;;5060614;28;20632;-69
2021/07/26 06:50:37;;;;;;;15.70;14.70;;;20.90;99.90;;;;;;5059906;28;20813;-70
2021/07/26 06:53:04;;;;;;;14.90;14.10;;;21.10;99.90;;;;;;5055187;28;20459;-68
2021/07/26 06:55:31;;;;;;;15.43;14.43;;;21.30;99.90;;;;;;5051069;28;20551;-68
2021/07/26 06:58:00;;;;;;;16.30;15.30;;;21.50;99.90;;;;;;5057736;28;20478;-69
2021/07/26 07:00:27;;;;;;;15.53;14.60;;;21.30;99.90;;;;;;5057085;28;20460;-68
2021/07/26 07:02:54;;;;;;;15.70;14.80;;;21.40;99.90;;;;;;5056610;28;20479;-71
2021/07/26 07:05:20;;;;;;;15.63;14.83;;;21.60;99.90;;;;;;5058275;28;20460;-68
2021/07/26 07:07:47;;;;;;;15.00;14.20;;;21.70;99.90;;;;;;5059222;28;20551;-68
2021/07/26 07:10:14;;;;;;;15.83;14.50;;;21.40;99.90;;;;;;5060764;28;21000;-72
2021/07/26 07:12:42;;;;;;;15.50;14.47;;;21.50;99.90;;;;;;5060262;28;20459;-68
2021/07/26 07:15:18;;;;;;;16.10;14.73;;;21.50;99.90;;;;;;5058252;28;20450;-69
2021/07/26 07:17:44;;;;;;;15.63;14.53;;;21.60;99.90;;;;;;5063334;28;20873;-69
2021/07/26 07:20:14;;;;;;;15.10;14.20;;;21.60;99.90;;;;;;5063980;28;20962;-70
2021/07/26 07:22:41;;;;;;;16.27;15.27;;;21.70;99.90;;;;;;5051375;28;20491;-70
2021/07/26 07:25:08;;;;;;;15.40;14.50;;;21.60;99.90;;;;;;5056338;28;20462;-71
2021/07/26 07:27:35;;;;;;;15.83;14.90;;;21.70;99.90;;;;;;5058329;28;20471;-68
2021/07/26 07:30:02;;;;;;;15.93;14.67;;;21.90;99.90;;;;;;5063431;28;20468;-71
2021/07/26 07:32:32;;;;;;;16.73;14.97;;;21.90;99.90;;;;;;5050395;28;20454;-68
2021/07/26 07:34:59;;;;;;;15.23;14.30;;;22.10;99.90;;;;;;5053614;28;20461;-68
2021/07/26 07:37:26;;;;;;;15.33;14.37;;;21.90;99.90;;;;;;5058522;28;20649;-69
2021/07/26 07:39:53;;;;;;;14.60;13.70;;;22.10;99.90;;;;;;5057834;28;20542;-69
2021/07/26 07:42:20;;;;;;;14.60;13.90;;;22.20;99.90;;;;;;5056346;28;20740;-69
2021/07/26 07:44:47;;;;;;;14.80;14.00;;;22.50;99.90;;;;;;5059629;28;20466;-69
2021/07/26 07:47:14;;;;;;;15.77;14.97;;;22.60;99.90;;;;;;5057911;28;20569;-71
2021/07/26 07:49:43;;;;;;;15.10;13.90;;;22.80;99.90;;;;;;5053006;28;20670;-69
2021/07/26 07:52:11;;;;;;;15.17;14.27;;;23.10;99.90;;;;;;5055352;28;20471;-71
2021/07/26 07:54:38;;;;;;;16.90;15.67;;;23.00;99.90;;;;;;5059312;28;20466;-68
2021/07/26 07:57:05;;;;;;;14.63;13.93;;;22.80;99.90;;;;;;5051806;28;20489;-72
2021/07/26 07:59:32;;;;;;;15.53;14.73;;;23.00;99.90;;;;;;5054465;28;20490;-69
2021/07/26 08:02:03;;;;;;;15.77;14.93;;;23.10;99.90;;;;;;5050948;28;20491;-69
2021/07/26 08:04:30;;;;;;;15.00;14.20;;;23.00;99.90;;;;;;5052060;28;20466;-69
2021/07/26 08:06:58;;;;;;;15.73;14.93;;;23.00;99.90;;;;;;5057187;28;20467;-69
2021/07/26 08:09:25;;;;;;;16.20;15.20;;;23.30;99.90;;;;;;5055976;28;20487;-68
2021/07/26 08:11:52;;;;;;;15.30;14.40;;;23.50;99.90;;;;;;5051804;28;20465;-68
2021/07/26 08:14:18;;;;;;;15.40;14.60;;;23.60;99.90;;;;;;5059449;28;20867;-68
2021/07/26 08:16:45;;;;;;;15.77;14.87;;;23.60;99.90;;;;;;5058960;28;20459;-70
2021/07/26 08:19:12;;;;;;;15.70;14.70;;;23.60;99.90;;;;;;5058882;28;20467;-72
2021/07/26 08:21:39;;;;;;;15.30;14.50;;;23.80;99.90;;;;;;5061899;28;20478;-70
2021/07/26 08:24:08;;;;;;;15.57;14.60;;;23.70;99.90;;;;;;5063185;28;20962;-71
2021/07/26 08:26:34;;;;;;;15.60;14.70;;;23.70;99.90;;;;;;5063126;28;20459;-70
2021/07/26 08:29:01;;;;;;;15.53;14.63;;;23.70;99.90;;;;;;5057384;28;20470;-67
2021/07/26 08:31:28;;;;;;;15.10;14.30;;;23.90;99.90;;;;;;5064090;28;20617;-68
2021/07/26 08:33:55;;;;;;;14.60;13.90;;;24.60;99.90;;;;;;5063092;28;20459;-68
2021/07/26 08:36:22;;;;;;;14.47;13.67;;;25.30;99.90;;;;;;5060707;28;20949;-68
2021/07/26 08:38:48;;;;;;;15.47;14.50;;;25.70;99.90;;;;;;5063476;28;20463;-71
2021/07/26 08:41:19;;;;;;;15.57;14.77;;;25.60;99.90;;;;;;5065309;28;20471;-68
2021/07/26 08:43:45;;;;;;;15.27;14.23;;;25.90;99.90;;;;;;5058297;28;20521;-70
2021/07/26 08:46:16;;;;;;;14.67;13.90;;;26.40;99.90;;;;;;5059561;28;20461;-68
2021/07/26 08:48:44;;;;;;;14.67;13.53;;;27.10;99.90;;;;;;5056172;28;20473;-68
2021/07/26 08:51:15;;;;;;;14.33;13.63;;;27.30;99.90;;;;;;5048867;28;20992;-67
2021/07/26 08:53:43;;;;;;;18.60;14.20;;;26.30;99.90;;;;;;5058395;28;20466;-71
2021/07/26 08:56:10;;;;;;;15.00;14.20;;;26.40;99.90;;;;;;5054618;28;20467;-68
2021/07/26 08:58:39;;;;;;;14.50;13.80;;;26.70;99.90;;;;;;5060236;28;20465;-68
2021/07/26 09:01:07;;;;;;;16.03;14.77;;;27.20;99.90;;;;;;5055604;28;20464;-68
2021/07/26 09:03:34;;;;;;;15.93;15.00;;;26.50;99.90;;;;;;5053148;28;20881;-68
2021/07/26 09:06:01;;;;;;;15.00;14.20;;;26.70;99.90;;;;;;5056451;28;20532;-68
2021/07/26 09:08:33;;;;;;;15.37;14.37;;;26.70;99.90;;;;;;5055309;28;20463;-72
2021/07/26 09:11:02;;;;;;;15.00;14.30;;;26.30;99.90;;;;;;5052099;28;20508;-70
2021/07/26 09:13:39;;;;;;;14.90;14.07;;;25.80;99.90;;;;;;5056139;28;20503;-68
2021/07/26 09:16:19;;;;;;;15.07;14.17;;;25.60;99.90;;;;;;5055583;28;20466;-68
2021/07/26 09:18:47;;;;;;;14.57;13.77;;;26.40;99.90;;;;;;5055982;28;20574;-67
2021/07/26 09:21:14;;;;;;;15.67;14.60;;;26.60;99.90;;;;;;5052962;28;20509;-68
2021/07/26 09:24:05;;;;;;;15.20;14.40;;;26.40;99.90;;;;;;5051827;28;20486;-68
2021/07/26 09:26:31;;;;;;;15.30;14.40;;;26.60;99.90;;;;;;5044772;28;20524;-68
2021/07/26 09:29:00;;;;;;;15.23;14.53;;;26.70;99.90;;;;;;5056709;28;20863;-68
2021/07/26 09:31:27;;;;;;;15.10;14.13;;;26.40;99.90;;;;;;5055037;28;20988;-68
2021/07/26 09:33:54;;;;;;;13.93;13.33;;;26.00;99.90;;;;;;5052432;28;20478;-68
2021/07/26 09:36:21;;;;;;;14.80;14.10;;;26.20;99.90;;;;;;5053069;28;20468;-69
2021/07/26 09:38:56;;;;;;;14.90;14.10;;;27.00;99.90;;;;;;5055988;28;20462;-68
2021/07/26 09:41:44;;;;;;;15.53;14.83;;;26.80;99.90;;;;;;5045863;28;21255;-68
2021/07/26 09:44:12;;;;;;;14.93;14.23;;;27.20;99.90;;;;;;5052935;28;20482;-68
2021/07/26 09:46:43;;;;;;;14.97;14.27;;;27.80;99.90;;;;;;5056565;28;20556;-68
2021/07/26 09:49:10;;;;;;;16.03;15.20;;;27.30;99.90;;;;;;5052762;28;20551;-68
2021/07/26 09:51:38;;;;;;;15.73;15.00;;;26.30;99.90;;;;;;5057165;28;20491;-68
2021/07/26 09:54:05;;;;;;;15.17;14.47;;;25.80;99.90;;;;;;5055970;28;20463;-70
2021/07/26 09:56:33;;;;;;;14.83;14.10;;;25.70;99.90;;;;;;5056449;28;20494;-68
2021/07/26 09:59:01;;;;;;;15.03;14.23;;;26.20;99.90;;;;;;5050789;28;21327;-68
2021/07/26 10:01:30;;;;;;;15.07;14.13;;;25.70;99.90;;;;;;5053926;28;20564;-68
2021/07/26 10:03:57;;;;;;;14.13;13.50;;;26.50;99.90;;;;;;5052585;28;20921;-68
2021/07/26 10:06:26;;;;;;;15.80;14.90;;;26.80;99.90;;;;;;5053880;28;20455;-68
2021/07/26 10:08:55;;;;;;;15.13;14.33;;;27.30;99.90;;;;;;5055205;28;20578;-69
2021/07/26 10:11:23;;;;;;;15.00;14.00;;;28.10;99.90;;;;;;5053452;28;20474;-71
2021/07/26 10:13:51;;;;;;;15.23;14.53;;;29.10;99.90;;;;;;5054224;28;20470;-69
2021/07/26 10:16:19;;;;;;;15.57;14.30;;;29.70;99.90;;;;;;5051474;28;20478;-68
2021/07/26 10:18:48;;;;;;;15.50;14.63;;;29.50;99.90;;;;;;5052015;28;20858;-69
2021/07/26 10:21:17;;;;;;;15.40;14.50;;;29.40;99.90;;;;;;5049263;28;20459;-71
2021/07/26 10:23:52;;;;;;;15.30;14.50;;;29.00;99.90;;;;;;5054098;28;20531;-69
2021/07/26 10:26:24;;;;;;;15.43;14.63;;;29.80;99.90;;;;;;5059032;28;21064;-68
2021/07/26 10:28:54;;;;;;;15.57;14.87;;;29.90;99.90;;;;;;5055541;28;20475;-69
2021/07/26 10:31:38;;;;;;;14.70;14.00;;;30.00;99.90;;;;;;5055291;28;20508;-69
2021/07/26 10:34:08;;;;;;;14.73;13.93;;;30.00;99.90;;;;;;5055556;28;20581;-71
2021/07/26 10:36:49;;;;;;;14.77;13.90;;;30.20;99.90;;;;;;5055197;28;20463;-68
2021/07/26 10:39:16;;;;;;;15.63;14.93;;;30.30;99.90;;;;;;5050325;28;21641;-69
2021/07/26 10:42:04;;;;;;;16.47;15.60;;;30.00;99.90;;;;;;5054987;28;20562;-69
2021/07/26 10:44:49;;;;;;;15.60;14.90;;;30.10;99.90;;;;;;5061082;28;20468;-69
2021/07/26 10:47:20;;;;;;;15.00;14.30;;;28.30;99.90;;;;;;5054744;28;20463;-70
2021/07/26 10:50:11;;;;;;;14.90;14.20;;;27.50;99.90;;;;;;5052311;28;20459;-69
2021/07/26 10:52:47;;;;;;;15.00;14.23;;;28.00;99.90;;;;;;5052370;28;20473;-71
2021/07/26 10:55:57;;;;;;;14.90;14.20;;;27.90;99.90;;;;;;5047468;28;21066;-69
2021/07/26 10:58:58;;;;;;;15.83;15.03;;;27.70;99.90;;;;;;5047491;28;20469;-69
2021/07/26 11:02:02;;;;;;;15.27;14.57;;;28.10;99.90;;;;;;5045596;28;20844;-69
2021/07/26 11:04:34;;;;;;;14.67;13.80;;;28.80;99.90;;;;;;5045747;28;20922;-69
2021/07/26 11:07:07;;;;;;;14.80;14.07;;;29.30;99.90;;;;;;5054264;28;20825;-69
2021/07/26 11:09:45;;;;;;;15.17;14.37;;;29.10;99.90;;;;;;5053723;28;20466;-69
2021/07/26 11:12:12;;;;;;;14.77;14.10;;;28.90;99.90;;;;;;5049734;28;20463;-69
2021/07/26 11:14:40;;;;;;;15.27;14.47;;;29.30;99.90;;;;;;5051260;28;20537;-71
2021/07/26 11:17:08;;;;;;;15.33;14.63;;;29.50;99.90;;;;;;5055982;28;20520;-70
2021/07/26 11:19:37;;;;;;;15.27;13.90;;;29.50;99.90;;;;;;5054771;28;20552;-69
2021/07/26 11:22:07;;;;;;;15.67;14.90;;;28.80;99.90;;;;;;5058694;28;21030;-71
2021/07/26 11:24:48;;;;;;;15.60;14.80;;;28.90;99.90;;;;;;5052466;28;20499;-67
2021/07/26 11:27:16;;;;;;;15.70;14.90;;;29.20;99.70;;;;;;5048918;28;20482;-66
2021/07/26 11:29:49;;;;;;;15.43;14.63;;;28.90;99.70;;;;;;5055484;28;20466;-67
2021/07/26 11:32:19;;;;;;;15.83;15.03;;;28.30;99.90;;;;;;5054246;28;20836;-67
2021/07/26 11:34:46;;;;;;;15.57;14.77;;;28.00;99.90;;;;;;5049496;28;20981;-67
2021/07/26 11:37:15;;;;;;;16.97;15.43;;;28.30;99.90;;;;;;5057423;28;20976;-68
2021/07/26 11:39:46;;;;;;;15.20;14.50;;;28.70;99.90;;;;;;5052843;28;20897;-69
2021/07/26 11:42:15;;;;;;;14.70;14.10;;;28.10;99.90;;;;;;5048657;28;20486;-69
2021/07/26 11:44:46;;;;;;;14.43;13.73;;;28.80;99.90;;;;;;5053841;28;20519;-67
2021/07/26 11:47:14;;;;;;;13.90;13.30;;;28.80;99.90;;;;;;5054582;28;20463;-67
2021/07/26 11:49:50;;;;;;;14.43;13.73;;;28.70;99.90;;;;;;5053592;28;20518;-67
2021/07/26 11:52:19;;;;;;;14.30;13.60;;;28.90;99.90;;;;;;5056172;28;20937;-70
2021/07/26 11:54:46;;;;;;;15.20;14.50;;;28.50;99.90;;;;;;5061227;28;20810;-70
2021/07/26 11:57:14;;;;;;;15.07;14.17;;;28.40;99.90;;;;;;5050458;28;20469;-70
2021/07/26 11:59:49;;;;;;;15.27;14.47;;;28.70;99.90;;;;;;5052705;28;20458;-71
2021/07/26 12:02:23;;;;;;;15.20;14.20;;;28.90;99.90;;;;;;5054035;28;20528;-70
2021/07/26 12:04:51;;;;;;;14.97;13.97;;;28.90;99.90;;;;;;5056365;28;20462;-71
2021/07/26 12:07:39;;;;;;;15.03;14.13;;;29.30;99.80;;;;;;5055944;28;20942;-71
2021/07/26 12:10:07;;;;;;;15.43;14.60;;;29.40;99.90;;;;;;5051923;28;20510;-71
2021/07/26 12:12:37;;;;;;;15.70;14.87;;;30.10;99.90;;;;;;5057530;28;20466;-71
2021/07/26 12:15:23;;;;;;;15.60;14.60;;;30.30;99.60;;;;;;5049212;28;20470;-72
2021/07/26 12:18:02;;;;;;;14.60;13.90;;;29.60;99.50;;;;;;5053859;28;20458;-71
2021/07/26 12:20:29;;;;;;;14.73;14.03;;;29.10;99.90;;;;;;5055220;28;20469;-70
2021/07/26 12:22:57;;;;;;;15.20;14.40;;;28.30;99.90;;;;;;5050708;28;20491;-72
2021/07/26 12:25:25;;;;;;;15.40;14.67;;;28.30;99.90;;;;;;5057627;28;20459;-71
2021/07/26 12:27:58;;;;;;;14.97;14.20;;;28.10;99.90;;;;;;5051284;28;21038;-71
2021/07/26 12:30:35;;;;;;;15.60;14.70;;;28.40;99.90;;;;;;5054489;28;20886;-71
2021/07/26 12:33:02;;;;;;;14.83;14.13;;;29.00;99.90;;;;;;5056913;28;20566;-70
2021/07/26 12:35:29;;;;;;;15.63;14.83;;;29.30;99.90;;;;;;5051386;28;20506;-72
2021/07/26 12:38:18;;;;;;;15.90;15.00;;;30.00;99.80;;;;;;5049191;28;20466;-72
2021/07/26 12:40:48;;;;;;;16.83;15.93;;;29.60;99.90;;;;;;5045458;28;20937;-71